createdAt,value
2022-08-10T00:00:56.942Z,19.10
2022-08-10T00:03:23.809Z,19.10
2022-08-10T00:05:52.849Z,19.10
2022-08-10T00:10:51.995Z,18.80
2022-08-10T00:13:18.835Z,18.90
2022-08-10T00:15:53.684Z,19.10
2022-08-10T00:18:34.212Z,19.10
2022-08-10T00:21:07.405Z,18.90
2022-08-10T00:23:37.106Z,19.00
2022-08-10T00:26:05.315Z,19.10
2022-08-10T00:28:32.457Z,19.10
2022-08-10T00:30:59.359Z,19.10
2022-08-10T00:33:26.418Z,19.00
2022-08-10T00:35:53.451Z,19.10
2022-08-10T00:38:20.376Z,19.00
2022-08-10T00:40:47.268Z,19.00
2022-08-10T00:43:14.089Z,19.00
2022-08-10T00:45:40.951Z,18.90
2022-08-10T00:48:07.797Z,19.00
2022-08-10T00:50:34.752Z,19.00
2022-08-10T00:53:01.959Z,18.90
2022-08-10T00:55:29.011Z,18.80
2022-08-10T00:57:56.577Z,18.80
2022-08-10T01:00:26.223Z,19.00
2022-08-10T01:02:53.233Z,18.90
2022-08-10T01:05:21.449Z,18.90
2022-08-10T01:07:56.906Z,18.80
2022-08-10T01:10:46.529Z,18.80
2022-08-10T01:13:43.929Z,18.80
2022-08-10T01:16:45.941Z,18.80
2022-08-10T01:19:27.637Z,18.70
2022-08-10T01:22:26.274Z,18.80
2022-08-10T01:26:12.461Z,18.80
2022-08-10T01:29:08.057Z,18.60
2022-08-10T01:31:41.844Z,18.60
2022-08-10T01:34:14.717Z,18.60
2022-08-10T01:36:48.640Z,18.50
2022-08-10T01:39:23.742Z,18.50
2022-08-10T01:41:56.003Z,18.50
2022-08-10T01:44:33.860Z,18.60
2022-08-10T01:47:07.563Z,18.50
2022-08-10T01:49:35.053Z,18.40
2022-08-10T01:52:03.258Z,18.40
2022-08-10T01:54:31.260Z,18.30
2022-08-10T01:56:59.525Z,18.20
2022-08-10T01:59:32.637Z,18.20
2022-08-10T02:02:03.719Z,18.30
2022-08-10T02:04:34.284Z,18.40
2022-08-10T02:07:02.586Z,18.40
2022-08-10T02:09:36.729Z,18.30
2022-08-10T02:12:09.100Z,18.20
2022-08-10T02:14:43.023Z,18.20
2022-08-10T02:17:58.664Z,18.20
2022-08-10T02:20:07.363Z,18.10
2022-08-10T02:22:38.875Z,18.20
2022-08-10T02:25:41.034Z,18.30
2022-08-10T02:27:58.870Z,18.20
2022-08-10T02:30:27.943Z,18.20
2022-08-10T02:32:56.393Z,18.20
2022-08-10T02:35:24.185Z,18.30
2022-08-10T02:37:59.973Z,18.30
2022-08-10T02:42:18.889Z,18.10
2022-08-10T02:45:18.930Z,18.10
2022-08-10T02:46:34.654Z,18.00
2022-08-10T02:49:03.990Z,18.00
2022-08-10T02:52:07.074Z,18.10
2022-08-10T02:54:33.809Z,18.10
2022-08-10T02:57:10.030Z,18.10
2022-08-10T02:59:55.785Z,18.00
2022-08-10T03:02:32.226Z,17.90
2022-08-10T03:05:07.894Z,18.00
2022-08-10T03:07:47.795Z,18.00
2022-08-10T03:10:20.319Z,18.00
2022-08-10T03:12:55.206Z,17.90
2022-08-10T03:15:23.583Z,18.00
2022-08-10T03:17:57.517Z,17.90
2022-08-10T03:20:39.749Z,17.90
2022-08-10T03:23:14.026Z,17.90
2022-08-10T03:25:52.925Z,17.90
2022-08-10T03:28:30.105Z,17.90
2022-08-10T03:30:59.000Z,17.80
2022-08-10T03:33:28.833Z,17.90
2022-08-10T03:36:40.074Z,17.90
2022-08-10T03:38:42.922Z,17.80
2022-08-10T03:41:15.927Z,17.70
2022-08-10T03:43:48.735Z,17.80
2022-08-10T03:46:18.846Z,17.70
2022-08-10T03:48:49.694Z,17.80
2022-08-10T03:51:18.984Z,17.80
2022-08-10T03:54:04.539Z,17.80
2022-08-10T03:56:35.881Z,17.90
2022-08-10T03:59:02.952Z,17.90
2022-08-10T04:02:44.919Z,17.80
2022-08-10T04:04:22.778Z,17.70
2022-08-10T04:06:55.759Z,17.70
2022-08-10T04:09:53.986Z,17.70
2022-08-10T04:12:18.340Z,17.90
2022-08-10T04:14:50.827Z,17.80
2022-08-10T04:18:03.176Z,18.00
2022-08-10T04:20:17.753Z,17.90
2022-08-10T04:22:52.035Z,17.90
2022-08-10T04:25:20.708Z,18.10
2022-08-10T04:27:48.400Z,18.10
2022-08-10T04:30:15.547Z,18.20
2022-08-10T04:32:44.836Z,18.20
2022-08-10T04:35:13.733Z,18.10
2022-08-10T04:37:43.422Z,18.20
2022-08-10T04:40:28.660Z,18.30
2022-08-10T04:43:10.511Z,18.40
2022-08-10T04:45:48.433Z,18.40
2022-08-10T04:48:40.982Z,18.50
2022-08-10T04:51:17.844Z,18.40
2022-08-10T04:54:05.721Z,18.50
2022-08-10T04:56:38.831Z,18.60
2022-08-10T04:59:07.513Z,18.70
2022-08-10T05:02:30.573Z,18.70
2022-08-10T05:04:35.577Z,18.80
2022-08-10T05:07:11.185Z,19.00
2022-08-10T05:10:04.002Z,19.00
2022-08-10T05:12:31.053Z,19.10
2022-08-10T05:14:57.949Z,19.20
2022-08-10T05:17:24.935Z,19.30
2022-08-10T05:20:02.359Z,19.50
2022-08-10T05:22:37.745Z,19.60
2022-08-10T05:25:07.161Z,19.60
2022-08-10T05:27:34.668Z,19.90
2022-08-10T05:30:03.459Z,20.10
2022-08-10T05:32:55.249Z,20.40
2022-08-10T05:35:20.289Z,20.90
2022-08-10T05:38:12.831Z,21.30
2022-08-10T05:43:03.226Z,21.70
2022-08-10T05:45:30.123Z,21.90
2022-08-10T05:48:57.175Z,22.00
2022-08-10T05:50:44.070Z,22.20
2022-08-10T05:53:59.134Z,21.70
2022-08-10T05:55:57.795Z,21.50
2022-08-10T05:58:25.006Z,21.30
2022-08-10T06:00:54.093Z,21.50
2022-08-10T06:03:26.302Z,21.70
2022-08-10T06:05:55.268Z,22.10
2022-08-10T06:12:23.693Z,22.80
2022-08-10T06:13:59.988Z,22.60
2022-08-10T06:16:36.301Z,22.80
2022-08-10T06:19:04.293Z,22.70
2022-08-10T06:21:33.167Z,23.10
2022-08-10T06:24:02.152Z,23.00
2022-08-10T06:26:29.384Z,23.20
2022-08-10T06:29:02.879Z,22.70
2022-08-10T06:31:47.812Z,22.50
2022-08-10T06:34:20.832Z,22.90
2022-08-10T06:36:49.006Z,23.20
2022-08-10T06:39:32.833Z,23.50
2022-08-10T06:42:17.530Z,23.40
2022-08-10T06:45:00.274Z,23.20
2022-08-10T06:47:45.883Z,23.00
2022-08-10T06:50:17.379Z,23.10
2022-08-10T06:53:03.734Z,22.90
2022-08-10T06:55:50.073Z,23.10
2022-08-10T06:58:26.777Z,23.40
2022-08-10T07:00:56.297Z,23.20
2022-08-10T07:03:31.322Z,23.30
2022-08-10T07:05:59.885Z,23.40
2022-08-10T07:08:31.362Z,23.20
2022-08-10T07:10:59.323Z,23.50
2022-08-10T07:14:14.085Z,22.90
2022-08-10T07:16:16.240Z,22.60
2022-08-10T07:18:44.392Z,23.00
2022-08-10T07:21:13.288Z,23.20
2022-08-10T07:23:56.973Z,23.00
2022-08-10T07:26:27.697Z,23.40
2022-08-10T07:28:55.891Z,23.30
2022-08-10T07:31:54.621Z,23.10
2022-08-10T07:34:11.420Z,23.20
2022-08-10T07:36:40.570Z,22.90
2022-08-10T07:39:09.485Z,23.70
2022-08-10T07:41:41.451Z,23.70
2022-08-10T07:44:10.632Z,23.80
2022-08-10T07:46:45.777Z,23.60
2022-08-10T07:49:19.816Z,23.30
2022-08-10T07:51:54.696Z,23.00
2022-08-10T07:54:25.179Z,23.30
2022-08-10T07:56:55.467Z,23.20
2022-08-10T07:59:37.469Z,23.30
2022-08-10T08:02:07.875Z,23.20
2022-08-10T08:04:36.542Z,23.10
2022-08-10T08:07:03.571Z,23.20
2022-08-10T08:09:31.848Z,23.20
2022-08-10T08:12:00.541Z,23.50
2022-08-10T08:14:28.424Z,23.60
2022-08-10T08:16:55.812Z,24.10
2022-08-10T08:19:28.031Z,23.90
2022-08-10T08:24:05.068Z,24.00
2022-08-10T08:24:52.136Z,23.80
2022-08-10T08:27:20.993Z,24.40
2022-08-10T08:29:49.781Z,24.10
2022-08-10T08:32:19.405Z,24.20
2022-08-10T08:34:48.254Z,24.00
2022-08-10T08:38:26.489Z,23.90
2022-08-10T08:40:07.619Z,24.30
2022-08-10T08:42:54.845Z,24.10
2022-08-10T08:45:32.824Z,24.40
2022-08-10T08:48:11.554Z,24.50
2022-08-10T08:51:08.380Z,24.40
2022-08-10T08:54:01.286Z,24.70
2022-08-10T08:57:02.878Z,24.30
2022-08-10T08:59:44.748Z,24.30
2022-08-10T09:02:33.816Z,24.20
2022-08-10T09:05:12.604Z,24.50
2022-08-10T09:08:03.081Z,24.40
2022-08-10T09:10:45.290Z,24.30
2022-08-10T09:13:14.878Z,24.60
2022-08-10T09:15:57.483Z,24.50
2022-08-10T09:19:03.178Z,24.50
2022-08-10T09:21:43.165Z,24.50
2022-08-10T09:24:33.879Z,24.50
2022-08-10T09:27:08.867Z,24.20
2022-08-10T09:29:46.772Z,24.30
2022-08-10T09:36:16.837Z,24.60
2022-08-10T09:36:23.506Z,24.90
2022-08-10T09:39:05.287Z,25.00
2022-08-10T09:41:59.747Z,25.20
2022-08-10T09:44:58.068Z,25.00
2022-08-10T09:48:01.779Z,25.30
2022-08-10T09:51:05.422Z,25.00
2022-08-10T09:53:56.065Z,25.30
2022-08-10T09:56:40.880Z,25.00
2022-08-10T10:00:01.591Z,25.20
2022-08-10T10:02:23.932Z,25.50
2022-08-10T10:05:08.441Z,25.60
2022-08-10T10:07:42.262Z,25.40
2022-08-10T10:10:29.632Z,25.40
2022-08-10T10:13:07.613Z,25.70
2022-08-10T10:15:48.184Z,25.30
2022-08-10T10:18:36.743Z,25.30
2022-08-10T10:21:55.150Z,25.50
2022-08-10T10:24:24.482Z,25.60
2022-08-10T10:26:59.793Z,25.80
2022-08-10T10:29:58.372Z,25.80
2022-08-10T10:32:46.280Z,25.60
2022-08-10T10:35:44.135Z,26.00
2022-08-10T10:38:12.908Z,26.10
2022-08-10T10:40:51.661Z,26.00
2022-08-10T10:43:58.891Z,25.90
2022-08-10T10:46:43.878Z,25.80
2022-08-10T10:49:15.614Z,26.00
2022-08-10T10:52:08.868Z,25.90
2022-08-10T10:54:46.689Z,26.10
2022-08-10T10:57:22.669Z,26.20
2022-08-10T11:00:11.185Z,26.30
2022-08-10T11:03:03.999Z,26.60
2022-08-10T11:05:38.062Z,26.50
2022-08-10T11:08:28.965Z,26.20
2022-08-10T11:11:25.316Z,26.10
2022-08-10T11:14:24.896Z,26.50
2022-08-10T11:17:05.325Z,26.30
2022-08-10T11:20:09.698Z,26.60
2022-08-10T11:23:01.464Z,26.70
2022-08-10T11:25:36.185Z,26.90
2022-08-10T11:28:12.777Z,27.10
2022-08-10T11:31:01.004Z,27.00
2022-08-10T11:34:03.962Z,26.80
2022-08-10T11:37:02.915Z,26.60
2022-08-10T11:39:48.620Z,26.60
2022-08-10T11:42:40.044Z,26.80
2022-08-10T11:45:18.169Z,26.70
2022-08-10T11:47:56.280Z,26.90
2022-08-10T11:50:28.484Z,27.40
2022-08-10T11:53:24.472Z,27.40
2022-08-10T11:55:56.034Z,26.80
2022-08-10T11:58:26.734Z,26.80
2022-08-10T12:00:56.300Z,27.00
2022-08-10T12:03:24.599Z,27.10
2022-08-10T12:05:55.113Z,27.10
2022-08-10T12:10:04.663Z,27.00
2022-08-10T12:11:22.510Z,27.00
2022-08-10T12:14:24.985Z,26.80
2022-08-10T12:17:00.443Z,27.40
2022-08-10T12:20:01.712Z,27.50
2022-08-10T12:22:33.980Z,27.60
2022-08-10T12:25:05.050Z,27.20
2022-08-10T12:27:53.496Z,27.10
2022-08-10T12:30:26.470Z,26.60
2022-08-10T12:33:02.234Z,26.60
2022-08-10T12:36:14.926Z,26.90
2022-08-10T12:38:51.944Z,27.30
2022-08-10T12:41:44.073Z,27.40
2022-08-10T12:44:18.022Z,27.10
2022-08-10T12:46:58.615Z,26.60
2022-08-10T12:49:28.164Z,26.60
2022-08-10T12:52:31.003Z,26.60
2022-08-10T12:55:00.616Z,26.90
2022-08-10T12:57:29.084Z,27.30
2022-08-10T12:59:59.731Z,26.80
2022-08-10T13:02:28.269Z,26.60
2022-08-10T13:04:58.920Z,26.20
2022-08-10T13:08:03.487Z,26.20
2022-08-10T13:10:18.367Z,26.30
2022-08-10T13:12:49.227Z,26.40
2022-08-10T13:15:48.956Z,26.70
2022-08-10T13:18:19.664Z,27.00
2022-08-10T13:20:52.048Z,27.10
2022-08-10T13:23:23.821Z,27.20
2022-08-10T13:25:51.895Z,27.00
2022-08-10T13:28:36.105Z,27.10
2022-08-10T13:31:16.684Z,27.10
2022-08-10T13:34:40.106Z,27.10
2022-08-10T13:36:47.572Z,27.00
2022-08-10T13:39:14.728Z,26.90
2022-08-10T13:41:44.255Z,27.20
2022-08-10T13:44:17.541Z,27.20
2022-08-10T13:46:52.202Z,27.00
2022-08-10T13:49:21.100Z,27.00
2022-08-10T13:51:54.324Z,26.30
2022-08-10T13:54:29.005Z,26.10
2022-08-10T13:56:56.020Z,26.60
2022-08-10T14:00:32.970Z,26.90
2022-08-10T14:02:21.445Z,26.60
2022-08-10T14:04:48.399Z,26.70
2022-08-10T14:07:17.254Z,26.80
2022-08-10T14:09:45.591Z,26.70
2022-08-10T14:12:13.332Z,27.00
2022-08-10T14:14:42.813Z,26.90
2022-08-10T14:17:11.324Z,27.10
2022-08-10T14:19:43.521Z,26.90
2022-08-10T14:22:17.034Z,26.90
2022-08-10T14:24:46.901Z,27.00
2022-08-10T14:27:17.580Z,26.90
2022-08-10T14:29:49.214Z,26.80
2022-08-10T14:32:20.006Z,26.70
2022-08-10T14:36:14.937Z,26.60
2022-08-10T14:37:42.428Z,26.90
2022-08-10T14:40:16.141Z,26.90
2022-08-10T14:42:53.788Z,26.90
2022-08-10T14:45:24.637Z,27.00
2022-08-10T14:47:59.382Z,26.80
2022-08-10T14:50:32.022Z,26.90
2022-08-10T14:53:11.000Z,26.80
2022-08-10T14:55:58.655Z,26.80
2022-08-10T14:58:31.640Z,26.90
2022-08-10T15:01:00.319Z,26.60
2022-08-10T15:04:02.337Z,26.60
2022-08-10T15:06:31.104Z,26.40
2022-08-10T15:09:19.407Z,26.60
2022-08-10T15:12:15.159Z,26.70
2022-08-10T15:14:46.053Z,26.60
2022-08-10T15:17:16.129Z,26.50
2022-08-10T15:20:02.380Z,26.50
2022-08-10T15:22:38.182Z,26.50
2022-08-10T15:25:18.815Z,26.40
2022-08-10T15:27:54.949Z,26.40
2022-08-10T15:30:30.496Z,26.40
2022-08-10T15:33:01.451Z,26.40
2022-08-10T15:35:29.921Z,26.40
2022-08-10T15:38:04.375Z,26.30
2022-08-10T15:40:39.107Z,26.30
2022-08-10T15:43:20.799Z,26.30
2022-08-10T15:45:56.281Z,26.20
2022-08-10T15:48:26.146Z,26.20
2022-08-10T15:51:05.640Z,26.10
2022-08-10T15:53:49.144Z,26.10
2022-08-10T15:56:39.606Z,26.00
2022-08-10T15:59:26.224Z,26.00
2022-08-10T16:02:13.563Z,26.10
2022-08-10T16:04:55.856Z,26.10
2022-08-10T16:07:45.346Z,26.00
2022-08-10T16:10:25.844Z,25.90
2022-08-10T16:14:00.006Z,25.80
2022-08-10T16:15:59.073Z,25.90
2022-08-10T16:18:32.114Z,25.80
2022-08-10T16:21:15.799Z,25.90
2022-08-10T16:24:02.124Z,25.70
2022-08-10T16:26:46.220Z,25.60
2022-08-10T16:29:15.798Z,25.50
2022-08-10T16:31:55.891Z,25.40
2022-08-10T16:34:24.581Z,25.50
2022-08-10T16:36:55.655Z,25.40
2022-08-10T16:39:58.443Z,25.40
2022-08-10T16:42:20.664Z,25.40
2022-08-10T16:45:24.901Z,25.30
2022-08-10T16:47:53.322Z,25.20
2022-08-10T16:50:27.420Z,25.20
2022-08-10T16:58:14.183Z,25.10
2022-08-10T17:00:44.349Z,25.10
2022-08-10T17:04:04.379Z,25.10
2022-08-10T17:06:11.005Z,25.00
2022-08-10T17:08:49.727Z,25.00
2022-08-10T17:11:19.769Z,24.70
2022-08-10T17:13:47.782Z,24.70
2022-08-10T17:16:17.173Z,24.70
2022-08-10T17:18:47.228Z,24.30
2022-08-10T17:23:46.758Z,23.90
2022-08-10T17:26:17.697Z,23.80
2022-08-10T17:28:54.302Z,23.40
2022-08-10T17:31:54.590Z,23.10
2022-08-10T17:34:23.389Z,22.90
2022-08-10T17:36:56.652Z,23.00
2022-08-10T17:51:56.487Z,22.50
2022-08-10T17:59:30.012Z,22.30
2022-08-10T18:04:35.623Z,22.40
2022-08-10T18:07:10.751Z,22.00
2022-08-10T18:12:17.534Z,22.00
2022-08-10T18:17:23.344Z,22.50
2022-08-10T18:19:59.733Z,21.90
2022-08-10T18:30:14.246Z,22.00
2022-08-10T18:32:46.470Z,21.90
2022-08-10T18:37:42.668Z,22.00
2022-08-10T18:50:43.641Z,21.50
2022-08-10T18:53:22.493Z,21.20
2022-08-10T18:56:09.336Z,21.20
2022-08-10T18:59:04.923Z,21.30
2022-08-10T19:01:46.961Z,21.20
2022-08-10T19:04:33.393Z,21.10
2022-08-10T19:07:28.143Z,21.00
2022-08-10T19:10:34.227Z,21.00
2022-08-10T19:13:12.511Z,20.90
2022-08-10T19:15:59.029Z,20.90
2022-08-10T19:18:28.914Z,21.00
2022-08-10T19:21:03.493Z,21.00
2022-08-10T19:23:32.814Z,20.80
2022-08-10T19:26:44.910Z,20.90
2022-08-10T19:30:10.035Z,21.00
2022-08-10T19:32:53.135Z,20.90
2022-08-10T19:36:03.052Z,20.90
2022-08-10T19:38:54.580Z,21.10
2022-08-10T19:41:32.703Z,21.00
2022-08-10T19:44:45.099Z,21.40
2022-08-10T19:47:28.728Z,21.60
2022-08-10T19:50:11.544Z,21.50
2022-08-10T19:53:19.247Z,21.50
2022-08-10T19:56:32.550Z,21.60
2022-08-10T19:59:07.964Z,21.80
2022-08-10T20:04:29.607Z,21.70
2022-08-10T20:07:05.219Z,21.50
2022-08-10T20:10:11.018Z,21.30
2022-08-10T20:12:37.959Z,21.20
2022-08-10T20:15:25.475Z,21.20
2022-08-10T20:18:00.797Z,21.00
2022-08-10T20:20:35.689Z,20.60
2022-08-10T20:28:20.961Z,20.00
2022-08-10T20:30:55.577Z,20.10
2022-08-10T20:33:34.895Z,20.20
2022-08-10T20:36:25.349Z,20.10
2022-08-10T20:39:27.585Z,20.20
2022-08-10T20:42:00.380Z,20.30
2022-08-10T20:44:48.220Z,20.40
2022-08-10T20:47:33.589Z,20.50
2022-08-10T20:50:28.442Z,20.50
2022-08-10T20:53:00.590Z,20.60
2022-08-10T20:55:52.696Z,20.50
2022-08-10T20:58:20.635Z,20.60
2022-08-10T21:01:13.806Z,20.50
2022-08-10T21:04:11.285Z,20.60
2022-08-10T21:06:46.576Z,20.50
2022-08-10T21:09:28.364Z,20.50
2022-08-10T21:12:19.909Z,20.40
2022-08-10T21:14:52.836Z,20.30
2022-08-10T21:18:07.756Z,20.40
2022-08-10T21:23:31.400Z,20.20
2022-08-10T21:26:15.668Z,20.30
2022-08-10T21:29:19.620Z,20.30
2022-08-10T21:32:06.623Z,20.20
2022-08-10T21:35:04.799Z,20.00
2022-08-10T21:37:56.985Z,20.00
2022-08-10T21:40:38.178Z,19.90
2022-08-10T21:43:22.464Z,19.80
2022-08-10T21:48:46.252Z,19.10
2022-08-10T21:52:02.226Z,19.40
2022-08-10T21:54:44.151Z,19.40
2022-08-10T21:57:23.390Z,19.50
2022-08-10T21:59:59.754Z,19.50
2022-08-10T22:02:31.962Z,19.30
2022-08-10T22:05:03.002Z,19.30
2022-08-10T22:07:33.415Z,19.30
2022-08-10T22:10:04.143Z,19.20
2022-08-10T22:12:38.001Z,19.40
2022-08-10T22:15:17.357Z,19.60
2022-08-10T22:18:03.462Z,19.30
2022-08-10T22:20:40.257Z,19.20
2022-08-10T22:23:22.112Z,19.10
2022-08-10T22:26:01.172Z,19.10
2022-08-10T22:28:28.022Z,19.20
2022-08-10T22:31:37.043Z,19.40
2022-08-10T22:34:06.783Z,19.20
2022-08-10T22:37:01.026Z,19.20
2022-08-10T22:40:07.296Z,19.10
2022-08-10T22:42:59.513Z,19.00
2022-08-10T22:45:33.601Z,19.00
2022-08-10T22:48:05.765Z,18.90
2022-08-10T22:50:33.605Z,18.90
2022-08-10T22:53:05.997Z,19.00
2022-08-10T22:55:40.520Z,18.90
2022-08-10T22:58:07.350Z,18.80
2022-08-10T23:00:35.460Z,18.80
2022-08-10T23:03:14.057Z,18.70
2022-08-10T23:05:54.279Z,18.80
2022-08-10T23:08:35.100Z,18.70
2022-08-10T23:11:08.444Z,18.80
2022-08-10T23:13:43.602Z,18.80
2022-08-10T23:16:15.577Z,18.70
2022-08-10T23:18:52.728Z,18.90
2022-08-10T23:21:22.966Z,18.90
2022-08-10T23:23:52.040Z,18.90
2022-08-10T23:26:28.795Z,19.00
2022-08-10T23:29:03.265Z,19.00
2022-08-10T23:31:50.240Z,18.90
2022-08-10T23:34:31.504Z,18.90
2022-08-10T23:36:59.718Z,18.90
2022-08-10T23:39:42.408Z,18.80
2022-08-10T23:42:14.159Z,18.80
2022-08-10T23:44:57.615Z,18.60
2022-08-10T23:47:27.058Z,18.90
2022-08-10T23:49:58.499Z,18.80
2022-08-10T23:52:32.312Z,18.60
2022-08-10T23:55:09.120Z,18.80
2022-08-10T23:57:41.840Z,18.70
